sensor_id;sensor_type;location;lat;lon;timestamp;P1;durP1;ratioP1;P2;durP2;ratioP2
5355;SDS011;70449;52.486;13.386;2023-12-20T00:02:26;16.30;;;8.70;;
5355;SDS011;70449;52.486;13.386;2023-12-20T00:04:55;7.93;;;6.53;;
5355;SDS011;70449;52.486;13.386;2023-12-20T00:07:22;10.10;;;8.20;;
5355;SDS011;70449;52.486;13.386;2023-12-20T00:09:49;10.97;;;8.50;;
5355;SDS011;70449;52.486;13.386;2023-12-20T00:12:17;10.13;;;7.33;;
5355;SDS011;70449;52.486;13.386;2023-12-20T00:14:44;8.47;;;7.00;;
5355;SDS011;70449;52.486;13.386;2023-12-20T00:17:11;12.93;;;8.40;;
5355;SDS011;70449;52.486;13.386;2023-12-20T00:19:38;10.53;;;7.83;;
5355;SDS011;70449;52.486;13.386;2023-12-20T00:22:07;13.50;;;7.53;;
5355;SDS011;70449;52.486;13.386;2023-12-20T00:24:35;8.13;;;6.43;;
5355;SDS011;70449;52.486;13.386;2023-12-20T00:27:02;7.33;;;6.60;;
5355;SDS011;70449;52.486;13.386;2023-12-20T00:29:30;7.67;;;6.87;;
5355;SDS011;70449;52.486;13.386;2023-12-20T00:31:58;7.00;;;5.90;;
5355;SDS011;70449;52.486;13.386;2023-12-20T00:34:25;6.63;;;5.33;;
5355;SDS011;70449;52.486;13.386;2023-12-20T00:36:52;7.30;;;5.90;;
5355;SDS011;70449;52.486;13.386;2023-12-20T00:39:21;7.17;;;6.43;;
5355;SDS011;70449;52.486;13.386;2023-12-20T00:41:49;7.77;;;6.33;;
5355;SDS011;70449;52.486;13.386;2023-12-20T00:44:16;8.40;;;6.87;;
5355;SDS011;70449;52.486;13.386;2023-12-20T00:46:43;6.70;;;5.97;;
5355;SDS011;70449;52.486;13.386;2023-12-20T00:49:11;6.27;;;5.33;;
5355;SDS011;70449;52.486;13.386;2023-12-20T00:51:38;4.43;;;4.00;;
5355;SDS011;70449;52.486;13.386;2023-12-20T00:54:05;8.53;;;6.33;;
5355;SDS011;70449;52.486;13.386;2023-12-20T00:56:34;7.37;;;6.57;;
5355;SDS011;70449;52.486;13.386;2023-12-20T00:59:01;8.90;;;6.20;;
5355;SDS011;70449;52.486;13.386;2023-12-20T01:01:28;7.87;;;6.10;;
5355;SDS011;70449;52.486;13.386;2023-12-20T01:03:58;9.13;;;7.43;;
5355;SDS011;70449;52.486;13.386;2023-12-20T01:06:25;7.20;;;6.53;;
5355;SDS011;70449;52.486;13.386;2023-12-20T01:08:52;7.23;;;6.53;;
5355;SDS011;70449;52.486;13.386;2023-12-20T01:11:19;7.10;;;6.17;;
5355;SDS011;70449;52.486;13.386;2023-12-20T01:13:48;8.70;;;6.23;;
5355;SDS011;70449;52.486;13.386;2023-12-20T01:16:15;8.27;;;7.13;;
5355;SDS011;70449;52.486;13.386;2023-12-20T01:18:43;7.70;;;6.90;;
5355;SDS011;70449;52.486;13.386;2023-12-20T01:21:12;10.27;;;7.67;;
5355;SDS011;70449;52.486;13.386;2023-12-20T01:23:39;9.63;;;7.67;;
5355;SDS011;70449;52.486;13.386;2023-12-20T01:26:07;8.73;;;7.43;;
5355;SDS011;70449;52.486;13.386;2023-12-20T01:28:34;10.10;;;7.60;;
5355;SDS011;70449;52.486;13.386;2023-12-20T01:31:02;10.93;;;8.13;;
5355;SDS011;70449;52.486;13.386;2023-12-20T01:33:30;7.70;;;6.00;;
5355;SDS011;70449;52.486;13.386;2023-12-20T01:35:57;7.90;;;6.50;;
5355;SDS011;70449;52.486;13.386;2023-12-20T01:38:24;11.47;;;6.80;;
5355;SDS011;70449;52.486;13.386;2023-12-20T01:40:52;8.37;;;7.50;;
5355;SDS011;70449;52.486;13.386;2023-12-20T01:43:19;10.23;;;7.30;;
5355;SDS011;70449;52.486;13.386;2023-12-20T01:45:46;8.50;;;6.87;;
5355;SDS011;70449;52.486;13.386;2023-12-20T01:48:15;8.77;;;7.10;;
5355;SDS011;70449;52.486;13.386;2023-12-20T01:50:43;7.53;;;6.53;;
5355;SDS011;70449;52.486;13.386;2023-12-20T01:53:12;9.30;;;7.40;;
5355;SDS011;70449;52.486;13.386;2023-12-20T01:55:40;7.87;;;6.17;;
5355;SDS011;70449;52.486;13.386;2023-12-20T01:58:08;7.40;;;5.50;;
5355;SDS011;70449;52.486;13.386;2023-12-20T02:00:37;8.43;;;6.83;;
5355;SDS011;70449;52.486;13.386;2023-12-20T02:03:04;6.37;;;5.67;;
5355;SDS011;70449;52.486;13.386;2023-12-20T02:05:34;8.90;;;6.67;;
5355;SDS011;70449;52.486;13.386;2023-12-20T02:08:02;7.07;;;6.33;;
5355;SDS011;70449;52.486;13.386;2023-12-20T02:10:30;8.87;;;6.90;;
5355;SDS011;70449;52.486;13.386;2023-12-20T02:12:58;6.70;;;6.10;;
5355;SDS011;70449;52.486;13.386;2023-12-20T02:15:25;8.10;;;6.23;;
5355;SDS011;70449;52.486;13.386;2023-12-20T02:17:52;10.47;;;7.40;;
5355;SDS011;70449;52.486;13.386;2023-12-20T02:20:20;8.80;;;7.40;;
5355;SDS011;70449;52.486;13.386;2023-12-20T02:22:49;7.93;;;7.03;;
5355;SDS011;70449;52.486;13.386;2023-12-20T02:25:16;8.07;;;6.83;;
5355;SDS011;70449;52.486;13.386;2023-12-20T02:27:43;10.40;;;7.00;;
5355;SDS011;70449;52.486;13.386;2023-12-20T02:30:11;7.87;;;6.77;;
5355;SDS011;70449;52.486;13.386;2023-12-20T02:32:38;7.93;;;5.77;;
5355;SDS011;70449;52.486;13.386;2023-12-20T02:35:05;7.03;;;6.23;;
5355;SDS011;70449;52.486;13.386;2023-12-20T02:37:33;8.33;;;6.30;;
5355;SDS011;70449;52.486;13.386;2023-12-20T02:40:02;10.63;;;7.30;;
5355;SDS011;70449;52.486;13.386;2023-12-20T02:42:30;8.17;;;7.03;;
5355;SDS011;70449;52.486;13.386;2023-12-20T02:44:57;9.17;;;7.70;;
5355;SDS011;70449;52.486;13.386;2023-12-20T02:47:24;8.40;;;6.73;;
5355;SDS011;70449;52.486;13.386;2023-12-20T02:49:52;8.93;;;7.53;;
5355;SDS011;70449;52.486;13.386;2023-12-20T02:52:19;20.37;;;8.33;;
5355;SDS011;70449;52.486;13.386;2023-12-20T02:54:46;11.53;;;7.57;;
5355;SDS011;70449;52.486;13.386;2023-12-20T02:57:15;8.20;;;7.33;;
5355;SDS011;70449;52.486;13.386;2023-12-20T02:59:42;10.40;;;8.20;;
5355;SDS011;70449;52.486;13.386;2023-12-20T03:02:09;9.97;;;7.80;;
5355;SDS011;70449;52.486;13.386;2023-12-20T03:04:36;13.57;;;8.53;;
5355;SDS011;70449;52.486;13.386;2023-12-20T03:07:04;9.33;;;7.83;;
5355;SDS011;70449;52.486;13.386;2023-12-20T03:09:31;9.30;;;7.70;;
5355;SDS011;70449;52.486;13.386;2023-12-20T03:11:58;8.77;;;6.33;;
5355;SDS011;70449;52.486;13.386;2023-12-20T03:14:27;8.87;;;7.27;;
5355;SDS011;70449;52.486;13.386;2023-12-20T03:16:55;12.13;;;6.70;;
5355;SDS011;70449;52.486;13.386;2023-12-20T03:19:23;11.80;;;5.93;;
5355;SDS011;70449;52.486;13.386;2023-12-20T03:21:50;7.00;;;6.30;;
5355;SDS011;70449;52.486;13.386;2023-12-20T03:24:18;16.90;;;5.73;;
5355;SDS011;70449;52.486;13.386;2023-12-20T03:26:45;12.90;;;5.80;;
5355;SDS011;70449;52.486;13.386;2023-12-20T03:29:13;7.23;;;5.60;;
5355;SDS011;70449;52.486;13.386;2023-12-20T03:31:41;10.83;;;5.07;;
5355;SDS011;70449;52.486;13.386;2023-12-20T03:34:09;11.20;;;5.20;;
5355;SDS011;70449;52.486;13.386;2023-12-20T03:36:36;6.00;;;3.80;;
5355;SDS011;70449;52.486;13.386;2023-12-20T03:39:03;5.33;;;4.03;;
5355;SDS011;70449;52.486;13.386;2023-12-20T03:41:31;7.53;;;4.20;;
5355;SDS011;70449;52.486;13.386;2023-12-20T03:43:59;7.73;;;4.47;;
5355;SDS011;70449;52.486;13.386;2023-12-20T03:46:26;8.10;;;3.70;;
5355;SDS011;70449;52.486;13.386;2023-12-20T03:48:55;9.60;;;3.63;;
5355;SDS011;70449;52.486;13.386;2023-12-20T03:51:22;6.17;;;3.20;;
5355;SDS011;70449;52.486;13.386;2023-12-20T03:53:49;2.60;;;2.40;;
5355;SDS011;70449;52.486;13.386;2023-12-20T03:56:16;13.13;;;3.80;;
5355;SDS011;70449;52.486;13.386;2023-12-20T03:58:43;10.33;;;3.10;;
5355;SDS011;70449;52.486;13.386;2023-12-20T04:01:10;8.37;;;2.70;;
5355;SDS011;70449;52.486;13.386;2023-12-20T04:03:38;10.43;;;3.10;;
5355;SDS011;70449;52.486;13.386;2023-12-20T04:06:07;9.53;;;3.33;;
5355;SDS011;70449;52.486;13.386;2023-12-20T04:08:34;19.47;;;4.00;;
5355;SDS011;70449;52.486;13.386;2023-12-20T04:11:02;8.77;;;3.13;;
5355;SDS011;70449;52.486;13.386;2023-12-20T04:13:29;11.17;;;3.17;;
5355;SDS011;70449;52.486;13.386;2023-12-20T04:15:56;7.90;;;2.90;;
5355;SDS011;70449;52.486;13.386;2023-12-20T04:18:24;15.20;;;2.90;;
5355;SDS011;70449;52.486;13.386;2023-12-20T04:20:51;5.60;;;2.70;;
5355;SDS011;70449;52.486;13.386;2023-12-20T04:23:19;18.37;;;3.30;;
5355;SDS011;70449;52.486;13.386;2023-12-20T04:25:47;13.47;;;2.80;;
5355;SDS011;70449;52.486;13.386;2023-12-20T04:28:14;8.40;;;2.57;;
5355;SDS011;70449;52.486;13.386;2023-12-20T04:30:41;11.83;;;2.50;;
5355;SDS011;70449;52.486;13.386;2023-12-20T04:33:09;9.10;;;2.57;;
5355;SDS011;70449;52.486;13.386;2023-12-20T04:35:36;12.67;;;3.20;;
5355;SDS011;70449;52.486;13.386;2023-12-20T04:38:05;5.37;;;2.50;;
5355;SDS011;70449;52.486;13.386;2023-12-20T04:40:34;8.53;;;2.40;;
5355;SDS011;70449;52.486;13.386;2023-12-20T04:43:01;8.23;;;2.87;;
5355;SDS011;70449;52.486;13.386;2023-12-20T04:45:29;7.23;;;2.80;;
5355;SDS011;70449;52.486;13.386;2023-12-20T04:47:56;21.77;;;2.20;;
5355;SDS011;70449;52.486;13.386;2023-12-20T04:50:23;17.93;;;2.43;;
5355;SDS011;70449;52.486;13.386;2023-12-20T04:52:51;7.93;;;2.80;;
5355;SDS011;70449;52.486;13.386;2023-12-20T04:55:18;21.77;;;2.80;;
5355;SDS011;70449;52.486;13.386;2023-12-20T04:57:47;15.03;;;3.10;;
5355;SDS011;70449;52.486;13.386;2023-12-20T05:00:15;14.97;;;2.53;;
5355;SDS011;70449;52.486;13.386;2023-12-20T05:02:42;10.77;;;2.37;;
5355;SDS011;70449;52.486;13.386;2023-12-20T05:05:10;17.77;;;3.60;;
5355;SDS011;70449;52.486;13.386;2023-12-20T05:07:37;5.33;;;2.03;;
5355;SDS011;70449;52.486;13.386;2023-12-20T05:10:05;7.30;;;2.57;;
5355;SDS011;70449;52.486;13.386;2023-12-20T05:12:34;5.33;;;2.07;;
5355;SDS011;70449;52.486;13.386;2023-12-20T05:15:02;7.93;;;2.07;;
5355;SDS011;70449;52.486;13.386;2023-12-20T05:17:32;18.10;;;3.10;;
5355;SDS011;70449;52.486;13.386;2023-12-20T05:27:24;7.10;;;2.30;;
5355;SDS011;70449;52.486;13.386;2023-12-20T05:29:51;8.00;;;1.97;;
5355;SDS011;70449;52.486;13.386;2023-12-20T05:32:23;16.60;;;2.90;;
5355;SDS011;70449;52.486;13.386;2023-12-20T05:34:51;12.90;;;2.57;;
5355;SDS011;70449;52.486;13.386;2023-12-20T05:37:18;8.13;;;2.13;;
5355;SDS011;70449;52.486;13.386;2023-12-20T05:39:46;19.80;;;2.17;;
5355;SDS011;70449;52.486;13.386;2023-12-20T05:42:13;7.10;;;1.90;;
5355;SDS011;70449;52.486;13.386;2023-12-20T05:44:40;12.83;;;2.83;;
5355;SDS011;70449;52.486;13.386;2023-12-20T05:47:07;7.60;;;2.47;;
5355;SDS011;70449;52.486;13.386;2023-12-20T05:49:36;23.50;;;2.57;;
5355;SDS011;70449;52.486;13.386;2023-12-20T05:52:03;11.63;;;1.83;;
5355;SDS011;70449;52.486;13.386;2023-12-20T05:54:31;12.90;;;2.70;;
5355;SDS011;70449;52.486;13.386;2023-12-20T05:56:59;6.27;;;1.83;;
5355;SDS011;70449;52.486;13.386;2023-12-20T05:59:26;26.47;;;2.40;;
5355;SDS011;70449;52.486;13.386;2023-12-20T06:01:54;12.40;;;4.97;;
5355;SDS011;70449;52.486;13.386;2023-12-20T06:04:21;8.23;;;2.50;;
5355;SDS011;70449;52.486;13.386;2023-12-20T06:06:50;18.13;;;2.57;;
5355;SDS011;70449;52.486;13.386;2023-12-20T06:09:24;9.20;;;2.50;;
5355;SDS011;70449;52.486;13.386;2023-12-20T06:11:53;14.13;;;2.63;;
5355;SDS011;70449;52.486;13.386;2023-12-20T06:14:20;8.47;;;2.17;;
5355;SDS011;70449;52.486;13.386;2023-12-20T06:16:48;14.00;;;2.30;;
5355;SDS011;70449;52.486;13.386;2023-12-20T06:19:15;4.07;;;1.60;;
5355;SDS011;70449;52.486;13.386;2023-12-20T06:21:42;12.83;;;2.63;;
5355;SDS011;70449;52.486;13.386;2023-12-20T06:24:11;9.50;;;2.23;;
5355;SDS011;70449;52.486;13.386;2023-12-20T06:26:41;9.53;;;1.93;;
5355;SDS011;70449;52.486;13.386;2023-12-20T06:29:09;9.90;;;3.60;;
5355;SDS011;70449;52.486;13.386;2023-12-20T06:31:36;9.63;;;1.70;;
5355;SDS011;70449;52.486;13.386;2023-12-20T06:34:03;7.30;;;2.40;;
5355;SDS011;70449;52.486;13.386;2023-12-20T06:36:31;6.67;;;2.10;;
5355;SDS011;70449;52.486;13.386;2023-12-20T06:38:58;11.10;;;3.17;;
5355;SDS011;70449;52.486;13.386;2023-12-20T06:41:27;10.93;;;2.40;;
5355;SDS011;70449;52.486;13.386;2023-12-20T06:43:55;7.20;;;2.27;;
5355;SDS011;70449;52.486;13.386;2023-12-20T06:46:23;9.50;;;2.53;;
5355;SDS011;70449;52.486;13.386;2023-12-20T06:48:50;11.67;;;2.97;;
5355;SDS011;70449;52.486;13.386;2023-12-20T06:51:17;12.67;;;2.27;;
5355;SDS011;70449;52.486;13.386;2023-12-20T06:53:45;9.20;;;2.23;;
5355;SDS011;70449;52.486;13.386;2023-12-20T06:56:13;3.53;;;1.93;;
5355;SDS011;70449;52.486;13.386;2023-12-20T06:58:43;7.83;;;3.27;;
5355;SDS011;70449;52.486;13.386;2023-12-20T07:01:11;16.63;;;2.87;;
5355;SDS011;70449;52.486;13.386;2023-12-20T07:03:38;8.97;;;2.50;;
5355;SDS011;70449;52.486;13.386;2023-12-20T07:06:05;9.63;;;2.77;;
5355;SDS011;70449;52.486;13.386;2023-12-20T07:08:33;18.57;;;2.97;;
5355;SDS011;70449;52.486;13.386;2023-12-20T07:11:00;4.77;;;2.70;;
5355;SDS011;70449;52.486;13.386;2023-12-20T07:13:28;12.50;;;3.00;;
5355;SDS011;70449;52.486;13.386;2023-12-20T07:15:57;9.87;;;2.40;;
5355;SDS011;70449;52.486;13.386;2023-12-20T07:18:26;19.03;;;2.77;;
5355;SDS011;70449;52.486;13.386;2023-12-20T07:20:53;9.97;;;2.63;;
5355;SDS011;70449;52.486;13.386;2023-12-20T07:23:20;15.50;;;2.40;;
5355;SDS011;70449;52.486;13.386;2023-12-20T07:25:48;6.87;;;2.67;;
5355;SDS011;70449;52.486;13.386;2023-12-20T07:28:15;5.00;;;1.73;;
5355;SDS011;70449;52.486;13.386;2023-12-20T07:30:42;8.37;;;2.37;;
5355;SDS011;70449;52.486;13.386;2023-12-20T07:33:11;9.93;;;2.53;;
5355;SDS011;70449;52.486;13.386;2023-12-20T07:35:38;5.07;;;1.80;;
5355;SDS011;70449;52.486;13.386;2023-12-20T07:38:06;14.60;;;2.17;;
5355;SDS011;70449;52.486;13.386;2023-12-20T07:40:33;6.50;;;1.67;;
5355;SDS011;70449;52.486;13.386;2023-12-20T07:43:00;8.27;;;2.17;;
5355;SDS011;70449;52.486;13.386;2023-12-20T07:45:27;15.60;;;2.10;;
5355;SDS011;70449;52.486;13.386;2023-12-20T07:47:54;20.20;;;3.03;;
5355;SDS011;70449;52.486;13.386;2023-12-20T07:50:23;14.53;;;3.07;;
5355;SDS011;70449;52.486;13.386;2023-12-20T07:52:51;12.10;;;2.33;;
5355;SDS011;70449;52.486;13.386;2023-12-20T07:55:18;5.93;;;2.20;;
5355;SDS011;70449;52.486;13.386;2023-12-20T07:57:45;13.43;;;3.07;;
5355;SDS011;70449;52.486;13.386;2023-12-20T08:00:13;5.87;;;1.97;;
5355;SDS011;70449;52.486;13.386;2023-12-20T08:02:41;5.67;;;1.63;;
5355;SDS011;70449;52.486;13.386;2023-12-20T08:05:08;10.00;;;2.20;;
5355;SDS011;70449;52.486;13.386;2023-12-20T08:07:37;5.67;;;2.13;;
5355;SDS011;70449;52.486;13.386;2023-12-20T08:10:05;11.60;;;2.30;;
5355;SDS011;70449;52.486;13.386;2023-12-20T08:12:33;7.03;;;1.60;;
5355;SDS011;70449;52.486;13.386;2023-12-20T08:15:01;20.07;;;2.47;;
5355;SDS011;70449;52.486;13.386;2023-12-20T08:17:29;19.63;;;3.20;;
5355;SDS011;70449;52.486;13.386;2023-12-20T08:19:56;9.20;;;2.53;;
5355;SDS011;70449;52.486;13.386;2023-12-20T08:22:24;9.67;;;2.13;;
5355;SDS011;70449;52.486;13.386;2023-12-20T08:24:53;12.60;;;2.17;;
5355;SDS011;70449;52.486;13.386;2023-12-20T08:27:20;7.70;;;1.80;;
5355;SDS011;70449;52.486;13.386;2023-12-20T08:29:47;7.03;;;2.20;;
5355;SDS011;70449;52.486;13.386;2023-12-20T08:32:16;4.53;;;1.90;;
5355;SDS011;70449;52.486;13.386;2023-12-20T08:34:43;6.43;;;2.13;;
5355;SDS011;70449;52.486;13.386;2023-12-20T08:37:11;11.60;;;2.47;;
5355;SDS011;70449;52.486;13.386;2023-12-20T08:39:39;3.87;;;1.70;;
5355;SDS011;70449;52.486;13.386;2023-12-20T08:42:07;4.27;;;2.70;;
5355;SDS011;70449;52.486;13.386;2023-12-20T08:44:34;18.93;;;2.53;;
5355;SDS011;70449;52.486;13.386;2023-12-20T08:47:02;15.27;;;2.20;;
5355;SDS011;70449;52.486;13.386;2023-12-20T08:49:30;9.33;;;2.20;;
5355;SDS011;70449;52.486;13.386;2023-12-20T08:51:57;6.83;;;1.93;;
5355;SDS011;70449;52.486;13.386;2023-12-20T08:54:24;7.33;;;2.20;;
5355;SDS011;70449;52.486;13.386;2023-12-20T08:56:51;17.27;;;2.60;;
5355;SDS011;70449;52.486;13.386;2023-12-20T08:59:20;11.13;;;2.40;;
5355;SDS011;70449;52.486;13.386;2023-12-20T09:01:48;12.40;;;3.20;;
5355;SDS011;70449;52.486;13.386;2023-12-20T09:04:19;9.63;;;2.00;;
5355;SDS011;70449;52.486;13.386;2023-12-20T09:06:46;5.03;;;2.20;;
5355;SDS011;70449;52.486;13.386;2023-12-20T09:09:13;7.20;;;1.93;;
5355;SDS011;70449;52.486;13.386;2023-12-20T09:11:41;6.67;;;1.87;;
5355;SDS011;70449;52.486;13.386;2023-12-20T09:14:11;7.90;;;1.50;;
5355;SDS011;70449;52.486;13.386;2023-12-20T09:16:39;13.80;;;2.30;;
5355;SDS011;70449;52.486;13.386;2023-12-20T09:19:07;9.57;;;2.67;;
5355;SDS011;70449;52.486;13.386;2023-12-20T09:21:34;20.17;;;3.30;;
5355;SDS011;70449;52.486;13.386;2023-12-20T09:24:01;9.70;;;2.80;;
5355;SDS011;70449;52.486;13.386;2023-12-20T09:26:29;10.60;;;2.60;;
5355;SDS011;70449;52.486;13.386;2023-12-20T09:28:56;15.50;;;2.77;;
5355;SDS011;70449;52.486;13.386;2023-12-20T09:34:37;5.83;;;1.97;;
5355;SDS011;70449;52.486;13.386;2023-12-20T09:37:04;12.03;;;2.43;;
5355;SDS011;70449;52.486;13.386;2023-12-20T09:39:32;5.27;;;1.83;;
5355;SDS011;70449;52.486;13.386;2023-12-20T09:42:00;8.30;;;2.23;;
5355;SDS011;70449;52.486;13.386;2023-12-20T09:44:29;9.17;;;1.70;;
5355;SDS011;70449;52.486;13.386;2023-12-20T09:46:58;7.73;;;1.90;;
5355;SDS011;70449;52.486;13.386;2023-12-20T09:49:28;11.63;;;2.10;;
5355;SDS011;70449;52.486;13.386;2023-12-20T09:51:58;7.80;;;1.90;;
5355;SDS011;70449;52.486;13.386;2023-12-20T09:54:28;15.57;;;2.20;;
5355;SDS011;70449;52.486;13.386;2023-12-20T09:56:55;7.13;;;2.30;;
5355;SDS011;70449;52.486;13.386;2023-12-20T09:59:23;15.53;;;2.73;;
5355;SDS011;70449;52.486;13.386;2023-12-20T10:01:50;17.67;;;2.53;;
5355;SDS011;70449;52.486;13.386;2023-12-20T10:04:21;15.90;;;2.60;;
5355;SDS011;70449;52.486;13.386;2023-12-20T10:06:50;23.00;;;2.90;;
5355;SDS011;70449;52.486;13.386;2023-12-20T10:09:19;18.73;;;3.17;;
5355;SDS011;70449;52.486;13.386;2023-12-20T10:11:47;4.23;;;2.10;;
5355;SDS011;70449;52.486;13.386;2023-12-20T10:14:14;9.47;;;2.30;;
5355;SDS011;70449;52.486;13.386;2023-12-20T10:16:43;15.90;;;2.30;;
5355;SDS011;70449;52.486;13.386;2023-12-20T10:19:11;7.90;;;2.40;;
5355;SDS011;70449;52.486;13.386;2023-12-20T10:21:38;13.00;;;2.27;;
5355;SDS011;70449;52.486;13.386;2023-12-20T10:24:08;22.83;;;2.77;;
5355;SDS011;70449;52.486;13.386;2023-12-20T10:26:37;8.67;;;1.73;;
5355;SDS011;70449;52.486;13.386;2023-12-20T10:29:04;8.93;;;1.77;;
5355;SDS011;70449;52.486;13.386;2023-12-20T10:31:32;7.23;;;2.10;;
5355;SDS011;70449;52.486;13.386;2023-12-20T10:34:01;6.50;;;1.60;;
5355;SDS011;70449;52.486;13.386;2023-12-20T10:36:29;5.33;;;2.27;;
5355;SDS011;70449;52.486;13.386;2023-12-20T10:38:58;16.23;;;2.50;;
5355;SDS011;70449;52.486;13.386;2023-12-20T10:41:27;5.63;;;1.70;;
5355;SDS011;70449;52.486;13.386;2023-12-20T10:43:57;11.83;;;2.10;;
5355;SDS011;70449;52.486;13.386;2023-12-20T10:46:26;9.00;;;1.53;;
5355;SDS011;70449;52.486;13.386;2023-12-20T10:48:55;8.77;;;2.47;;
5355;SDS011;70449;52.486;13.386;2023-12-20T10:51:23;36.70;;;2.23;;
5355;SDS011;70449;52.486;13.386;2023-12-20T10:53:53;4.50;;;1.93;;
5355;SDS011;70449;52.486;13.386;2023-12-20T10:56:22;21.20;;;4.20;;
5355;SDS011;70449;52.486;13.386;2023-12-20T10:58:50;12.03;;;2.73;;
5355;SDS011;70449;52.486;13.386;2023-12-20T11:01:19;4.67;;;2.03;;
5355;SDS011;70449;52.486;13.386;2023-12-20T11:03:48;5.83;;;2.27;;
5355;SDS011;70449;52.486;13.386;2023-12-20T11:06:26;5.03;;;2.20;;
5355;SDS011;70449;52.486;13.386;2023-12-20T11:09:03;2.20;;;1.80;;
5355;SDS011;70449;52.486;13.386;2023-12-20T11:11:41;19.43;;;3.27;;
5355;SDS011;70449;52.486;13.386;2023-12-20T11:14:23;8.70;;;2.50;;
5355;SDS011;70449;52.486;13.386;2023-12-20T11:17:09;3.23;;;1.70;;
5355;SDS011;70449;52.486;13.386;2023-12-20T11:19:43;7.60;;;2.20;;
5355;SDS011;70449;52.486;13.386;2023-12-20T11:22:33;11.90;;;2.97;;
5355;SDS011;70449;52.486;13.386;2023-12-20T11:25:03;13.13;;;2.70;;
5355;SDS011;70449;52.486;13.386;2023-12-20T11:27:33;7.83;;;2.13;;
5355;SDS011;70449;52.486;13.386;2023-12-20T11:30:02;17.83;;;3.60;;
5355;SDS011;70449;52.486;13.386;2023-12-20T11:32:35;6.70;;;2.03;;
5355;SDS011;70449;52.486;13.386;2023-12-20T11:35:16;18.87;;;3.27;;
5355;SDS011;70449;52.486;13.386;2023-12-20T11:37:45;9.60;;;2.67;;
5355;SDS011;70449;52.486;13.386;2023-12-20T11:40:14;10.80;;;2.93;;
5355;SDS011;70449;52.486;13.386;2023-12-20T11:42:43;9.80;;;2.83;;
5355;SDS011;70449;52.486;13.386;2023-12-20T11:45:16;17.23;;;2.27;;
5355;SDS011;70449;52.486;13.386;2023-12-20T11:47:49;7.83;;;2.70;;
5355;SDS011;70449;52.486;13.386;2023-12-20T11:50:19;7.80;;;2.43;;
5355;SDS011;70449;52.486;13.386;2023-12-20T11:52:48;9.30;;;2.40;;
5355;SDS011;70449;52.486;13.386;2023-12-20T11:55:17;15.10;;;2.33;;
5355;SDS011;70449;52.486;13.386;2023-12-20T11:57:45;10.00;;;2.60;;
5355;SDS011;70449;52.486;13.386;2023-12-20T12:00:12;8.23;;;2.70;;
5355;SDS011;70449;52.486;13.386;2023-12-20T12:02:41;8.83;;;2.83;;
5355;SDS011;70449;52.486;13.386;2023-12-20T12:05:10;8.77;;;2.40;;
5355;SDS011;70449;52.486;13.386;2023-12-20T12:07:37;9.03;;;2.53;;
5355;SDS011;70449;52.486;13.386;2023-12-20T12:10:05;16.37;;;2.70;;
5355;SDS011;70449;52.486;13.386;2023-12-20T12:12:34;10.47;;;2.53;;
5355;SDS011;70449;52.486;13.386;2023-12-20T12:15:01;4.63;;;1.63;;
5355;SDS011;70449;52.486;13.386;2023-12-20T12:17:29;12.43;;;2.50;;
5355;SDS011;70449;52.486;13.386;2023-12-20T12:20:01;8.13;;;1.90;;
5355;SDS011;70449;52.486;13.386;2023-12-20T12:22:33;12.93;;;2.87;;
5355;SDS011;70449;52.486;13.386;2023-12-20T12:25:08;8.23;;;2.07;;
5355;SDS011;70449;52.486;13.386;2023-12-20T12:27:38;7.90;;;2.33;;
5355;SDS011;70449;52.486;13.386;2023-12-20T12:30:07;2.80;;;1.90;;
5355;SDS011;70449;52.486;13.386;2023-12-20T12:32:38;7.00;;;2.00;;
5355;SDS011;70449;52.486;13.386;2023-12-20T12:35:06;3.47;;;1.70;;
5355;SDS011;70449;52.486;13.386;2023-12-20T12:37:36;6.50;;;2.17;;
5355;SDS011;70449;52.486;13.386;2023-12-20T12:40:06;9.87;;;2.53;;
5355;SDS011;70449;52.486;13.386;2023-12-20T12:42:36;12.70;;;2.57;;
5355;SDS011;70449;52.486;13.386;2023-12-20T12:45:04;12.30;;;3.23;;
5355;SDS011;70449;52.486;13.386;2023-12-20T12:47:32;6.90;;;2.50;;
5355;SDS011;70449;52.486;13.386;2023-12-20T12:50:00;14.93;;;2.63;;
5355;SDS011;70449;52.486;13.386;2023-12-20T12:52:28;17.00;;;2.97;;
5355;SDS011;70449;52.486;13.386;2023-12-20T12:54:57;9.57;;;2.30;;
5355;SDS011;70449;52.486;13.386;2023-12-20T12:57:25;7.63;;;2.30;;
5355;SDS011;70449;52.486;13.386;2023-12-20T12:59:52;8.10;;;3.10;;
5355;SDS011;70449;52.486;13.386;2023-12-20T13:02:20;6.03;;;2.80;;
5355;SDS011;70449;52.486;13.386;2023-12-20T13:04:47;6.23;;;2.23;;
5355;SDS011;70449;52.486;13.386;2023-12-20T13:07:15;8.23;;;2.90;;
5355;SDS011;70449;52.486;13.386;2023-12-20T13:09:42;3.53;;;2.07;;
5355;SDS011;70449;52.486;13.386;2023-12-20T13:12:11;7.90;;;2.23;;
5355;SDS011;70449;52.486;13.386;2023-12-20T13:14:38;18.47;;;3.73;;
5355;SDS011;70449;52.486;13.386;2023-12-20T13:17:06;12.70;;;3.67;;
5355;SDS011;70449;52.486;13.386;2023-12-20T13:19:34;27.83;;;4.00;;
5355;SDS011;70449;52.486;13.386;2023-12-20T13:22:02;9.57;;;2.67;;
5355;SDS011;70449;52.486;13.386;2023-12-20T13:24:30;12.37;;;2.73;;
5355;SDS011;70449;52.486;13.386;2023-12-20T13:26:57;5.60;;;1.77;;
5355;SDS011;70449;52.486;13.386;2023-12-20T13:29:26;6.70;;;3.00;;
5355;SDS011;70449;52.486;13.386;2023-12-20T13:31:53;2.77;;;2.13;;
5355;SDS011;70449;52.486;13.386;2023-12-20T13:34:21;6.33;;;3.07;;
5355;SDS011;70449;52.486;13.386;2023-12-20T13:36:48;6.57;;;2.20;;
5355;SDS011;70449;52.486;13.386;2023-12-20T13:39:17;2.00;;;1.70;;
5355;SDS011;70449;52.486;13.386;2023-12-20T13:41:44;3.17;;;1.70;;
5355;SDS011;70449;52.486;13.386;2023-12-20T13:44:12;2.40;;;1.30;;
5355;SDS011;70449;52.486;13.386;2023-12-20T13:46:41;2.80;;;1.30;;
5355;SDS011;70449;52.486;13.386;2023-12-20T13:49:10;2.23;;;1.27;;
5355;SDS011;70449;52.486;13.386;2023-12-20T13:51:38;7.60;;;1.40;;
5355;SDS011;70449;52.486;13.386;2023-12-20T13:54:06;5.40;;;1.30;;
5355;SDS011;70449;52.486;13.386;2023-12-20T13:56:34;3.07;;;1.57;;
5355;SDS011;70449;52.486;13.386;2023-12-20T13:59:01;1.40;;;1.30;;
5355;SDS011;70449;52.486;13.386;2023-12-20T14:01:28;2.40;;;1.97;;
5355;SDS011;70449;52.486;13.386;2023-12-20T14:03:58;5.07;;;1.73;;
5355;SDS011;70449;52.486;13.386;2023-12-20T14:06:26;11.17;;;2.00;;
5355;SDS011;70449;52.486;13.386;2023-12-20T14:08:54;4.33;;;1.73;;
5355;SDS011;70449;52.486;13.386;2023-12-20T14:11:22;1.07;;;1.07;;
5355;SDS011;70449;52.486;13.386;2023-12-20T14:13:49;1.00;;;1.00;;
5355;SDS011;70449;52.486;13.386;2023-12-20T14:16:17;3.03;;;1.20;;
5355;SDS011;70449;52.486;13.386;2023-12-20T14:18:44;1.93;;;1.20;;
5355;SDS011;70449;52.486;13.386;2023-12-20T14:21:13;5.47;;;1.60;;
5355;SDS011;70449;52.486;13.386;2023-12-20T14:23:40;1.73;;;1.20;;
5355;SDS011;70449;52.486;13.386;2023-12-20T14:26:07;5.60;;;1.10;;
5355;SDS011;70449;52.486;13.386;2023-12-20T14:28:40;1.97;;;1.10;;
5355;SDS011;70449;52.486;13.386;2023-12-20T14:31:07;1.13;;;1.00;;
5355;SDS011;70449;52.486;13.386;2023-12-20T14:33:35;1.90;;;1.07;;
5355;SDS011;70449;52.486;13.386;2023-12-20T14:36:04;2.50;;;1.00;;
5355;SDS011;70449;52.486;13.386;2023-12-20T14:38:33;0.87;;;0.87;;
5355;SDS011;70449;52.486;13.386;2023-12-20T14:41:01;1.27;;;0.90;;
5355;SDS011;70449;52.486;13.386;2023-12-20T14:43:29;2.00;;;0.93;;
5355;SDS011;70449;52.486;13.386;2023-12-20T14:45:57;3.13;;;1.00;;
5355;SDS011;70449;52.486;13.386;2023-12-20T14:48:24;5.53;;;1.27;;
5355;SDS011;70449;52.486;13.386;2023-12-20T14:50:53;2.30;;;0.90;;
5355;SDS011;70449;52.486;13.386;2023-12-20T14:53:20;1.73;;;1.63;;
5355;SDS011;70449;52.486;13.386;2023-12-20T14:55:49;1.27;;;0.97;;
5355;SDS011;70449;52.486;13.386;2023-12-20T14:58:16;2.33;;;1.10;;
5355;SDS011;70449;52.486;13.386;2023-12-20T15:00:44;1.30;;;1.20;;